sensor_id;sensor_type;location;lat;lon;timestamp;P1;durP1;ratioP1;P2;durP2;ratioP2
20245;SDS011;10281;54.406;18.556;2023-02-15T00:01:59;9.73;;;6.83;;
20245;SDS011;10281;54.406;18.556;2023-02-15T00:04:26;9.57;;;7.27;;
20245;SDS011;10281;54.406;18.556;2023-02-15T00:06:56;9.83;;;7.07;;
20245;SDS011;10281;54.406;18.556;2023-02-15T00:09:23;10.17;;;7.23;;
20245;SDS011;10281;54.406;18.556;2023-02-15T00:11:49;9.33;;;6.43;;
20245;SDS011;10281;54.406;18.556;2023-02-15T00:14:18;9.80;;;7.17;;
20245;SDS011;10281;54.406;18.556;2023-02-15T00:16:48;6.63;;;5.93;;
20245;SDS011;10281;54.406;18.556;2023-02-15T00:19:17;10.30;;;6.23;;
20245;SDS011;10281;54.406;18.556;2023-02-15T00:21:45;8.47;;;5.97;;
20245;SDS011;10281;54.406;18.556;2023-02-15T00:24:13;9.03;;;6.17;;
20245;SDS011;10281;54.406;18.556;2023-02-15T00:26:42;9.27;;;5.93;;
20245;SDS011;10281;54.406;18.556;2023-02-15T00:29:09;11.77;;;6.10;;
20245;SDS011;10281;54.406;18.556;2023-02-15T00:31:37;7.33;;;5.70;;
20245;SDS011;10281;54.406;18.556;2023-02-15T00:34:05;7.27;;;5.97;;
20245;SDS011;10281;54.406;18.556;2023-02-15T00:36:34;8.40;;;6.17;;
20245;SDS011;10281;54.406;18.556;2023-02-15T00:39:01;6.37;;;5.70;;
20245;SDS011;10281;54.406;18.556;2023-02-15T00:41:28;7.33;;;6.00;;
20245;SDS011;10281;54.406;18.556;2023-02-15T00:43:55;7.83;;;5.90;;
20245;SDS011;10281;54.406;18.556;2023-02-15T00:46:21;9.20;;;5.97;;
20245;SDS011;10281;54.406;18.556;2023-02-15T00:48:48;11.77;;;6.53;;
20245;SDS011;10281;54.406;18.556;2023-02-15T00:51:16;9.20;;;5.87;;
20245;SDS011;10281;54.406;18.556;2023-02-15T00:53:43;8.93;;;6.20;;
20245;SDS011;10281;54.406;18.556;2023-02-15T00:56:10;7.33;;;5.90;;
20245;SDS011;10281;54.406;18.556;2023-02-15T00:58:37;7.60;;;6.27;;
20245;SDS011;10281;54.406;18.556;2023-02-15T01:01:05;10.10;;;6.00;;
20245;SDS011;10281;54.406;18.556;2023-02-15T01:03:34;7.33;;;6.10;;
20245;SDS011;10281;54.406;18.556;2023-02-15T01:06:02;8.93;;;6.07;;
20245;SDS011;10281;54.406;18.556;2023-02-15T01:08:29;8.87;;;6.00;;
20245;SDS011;10281;54.406;18.556;2023-02-15T01:10:56;9.13;;;6.50;;
20245;SDS011;10281;54.406;18.556;2023-02-15T01:13:25;8.70;;;6.57;;
20245;SDS011;10281;54.406;18.556;2023-02-15T01:15:53;12.33;;;7.10;;
20245;SDS011;10281;54.406;18.556;2023-02-15T01:18:20;8.60;;;6.63;;
20245;SDS011;10281;54.406;18.556;2023-02-15T01:20:48;9.20;;;7.00;;
20245;SDS011;10281;54.406;18.556;2023-02-15T01:23:16;9.10;;;6.90;;
20245;SDS011;10281;54.406;18.556;2023-02-15T01:25:42;9.23;;;6.30;;
20245;SDS011;10281;54.406;18.556;2023-02-15T01:28:09;8.10;;;7.00;;
20245;SDS011;10281;54.406;18.556;2023-02-15T01:30:35;11.13;;;7.37;;
20245;SDS011;10281;54.406;18.556;2023-02-15T01:33:02;8.43;;;6.87;;
20245;SDS011;10281;54.406;18.556;2023-02-15T01:35:29;10.73;;;7.17;;
20245;SDS011;10281;54.406;18.556;2023-02-15T01:37:56;11.77;;;7.40;;
20245;SDS011;10281;54.406;18.556;2023-02-15T01:40:23;10.33;;;8.33;;
20245;SDS011;10281;54.406;18.556;2023-02-15T01:42:51;13.60;;;8.20;;
20245;SDS011;10281;54.406;18.556;2023-02-15T01:45:26;9.60;;;7.37;;
20245;SDS011;10281;54.406;18.556;2023-02-15T01:47:59;9.40;;;7.20;;
20245;SDS011;10281;54.406;18.556;2023-02-15T01:50:33;10.30;;;7.77;;
20245;SDS011;10281;54.406;18.556;2023-02-15T01:53:03;9.47;;;6.50;;
20245;SDS011;10281;54.406;18.556;2023-02-15T01:55:41;10.43;;;7.30;;
20245;SDS011;10281;54.406;18.556;2023-02-15T01:58:10;9.43;;;7.13;;
20245;SDS011;10281;54.406;18.556;2023-02-15T02:00:39;9.63;;;7.30;;
20245;SDS011;10281;54.406;18.556;2023-02-15T02:03:07;11.77;;;7.10;;
20245;SDS011;10281;54.406;18.556;2023-02-15T02:05:34;10.57;;;7.17;;
20245;SDS011;10281;54.406;18.556;2023-02-15T02:08:01;8.57;;;7.33;;
20245;SDS011;10281;54.406;18.556;2023-02-15T02:10:29;9.80;;;7.73;;
20245;SDS011;10281;54.406;18.556;2023-02-15T02:12:59;11.50;;;7.80;;
20245;SDS011;10281;54.406;18.556;2023-02-15T02:15:30;11.10;;;7.57;;
20245;SDS011;10281;54.406;18.556;2023-02-15T02:21:09;12.43;;;7.60;;
20245;SDS011;10281;54.406;18.556;2023-02-15T02:23:51;10.33;;;7.90;;
20245;SDS011;10281;54.406;18.556;2023-02-15T02:26:31;9.43;;;7.63;;
20245;SDS011;10281;54.406;18.556;2023-02-15T02:29:13;10.70;;;8.23;;
20245;SDS011;10281;54.406;18.556;2023-02-15T02:32:51;13.53;;;8.73;;
20245;SDS011;10281;54.406;18.556;2023-02-15T02:34:33;12.83;;;8.63;;
20245;SDS011;10281;54.406;18.556;2023-02-15T02:40:11;12.60;;;9.03;;
20245;SDS011;10281;54.406;18.556;2023-02-15T02:42:49;9.90;;;8.27;;
20245;SDS011;10281;54.406;18.556;2023-02-15T02:45:36;11.07;;;7.97;;
20245;SDS011;10281;54.406;18.556;2023-02-15T02:48:09;10.83;;;8.23;;
20245;SDS011;10281;54.406;18.556;2023-02-15T02:50:41;11.57;;;8.40;;
20245;SDS011;10281;54.406;18.556;2023-02-15T02:53:08;11.10;;;8.67;;
20245;SDS011;10281;54.406;18.556;2023-02-15T02:55:40;11.77;;;9.10;;
20245;SDS011;10281;54.406;18.556;2023-02-15T02:58:15;10.20;;;7.97;;
20245;SDS011;10281;54.406;18.556;2023-02-15T03:00:46;13.13;;;8.90;;
20245;SDS011;10281;54.406;18.556;2023-02-15T03:03:24;11.00;;;8.30;;
20245;SDS011;10281;54.406;18.556;2023-02-15T03:05:58;13.23;;;8.30;;
20245;SDS011;10281;54.406;18.556;2023-02-15T03:08:31;12.53;;;8.43;;
20245;SDS011;10281;54.406;18.556;2023-02-15T03:11:00;11.77;;;9.33;;
20245;SDS011;10281;54.406;18.556;2023-02-15T03:13:29;13.23;;;9.40;;
20245;SDS011;10281;54.406;18.556;2023-02-15T03:15:57;11.30;;;9.07;;
20245;SDS011;10281;54.406;18.556;2023-02-15T03:18:33;13.53;;;9.73;;
20245;SDS011;10281;54.406;18.556;2023-02-15T03:21:02;16.10;;;11.40;;
20245;SDS011;10281;54.406;18.556;2023-02-15T03:23:31;15.63;;;10.77;;
20245;SDS011;10281;54.406;18.556;2023-02-15T03:26:00;14.67;;;11.30;;
20245;SDS011;10281;54.406;18.556;2023-02-15T03:28:34;18.17;;;12.73;;
20245;SDS011;10281;54.406;18.556;2023-02-15T03:31:04;18.47;;;12.50;;
20245;SDS011;10281;54.406;18.556;2023-02-15T03:33:32;19.40;;;12.33;;
20245;SDS011;10281;54.406;18.556;2023-02-15T03:36:05;14.43;;;10.70;;
20245;SDS011;10281;54.406;18.556;2023-02-15T03:38:40;16.63;;;11.23;;
20245;SDS011;10281;54.406;18.556;2023-02-15T03:41:08;18.90;;;12.10;;
20245;SDS011;10281;54.406;18.556;2023-02-15T03:43:43;17.17;;;12.57;;
20245;SDS011;10281;54.406;18.556;2023-02-15T03:46:20;16.77;;;11.60;;
20245;SDS011;10281;54.406;18.556;2023-02-15T03:48:53;15.57;;;10.63;;
20245;SDS011;10281;54.406;18.556;2023-02-15T03:51:25;15.50;;;10.27;;
20245;SDS011;10281;54.406;18.556;2023-02-15T03:54:06;15.20;;;10.93;;
20245;SDS011;10281;54.406;18.556;2023-02-15T03:56:36;14.67;;;10.77;;
20245;SDS011;10281;54.406;18.556;2023-02-15T03:59:05;13.93;;;9.90;;
20245;SDS011;10281;54.406;18.556;2023-02-15T04:01:40;15.00;;;10.13;;
20245;SDS011;10281;54.406;18.556;2023-02-15T04:04:18;14.93;;;9.77;;
20245;SDS011;10281;54.406;18.556;2023-02-15T04:06:46;15.67;;;10.20;;
20245;SDS011;10281;54.406;18.556;2023-02-15T04:09:13;16.03;;;10.43;;
20245;SDS011;10281;54.406;18.556;2023-02-15T04:11:46;12.50;;;9.70;;
20245;SDS011;10281;54.406;18.556;2023-02-15T04:14:12;19.27;;;10.83;;
20245;SDS011;10281;54.406;18.556;2023-02-15T04:16:45;15.40;;;10.30;;
20245;SDS011;10281;54.406;18.556;2023-02-15T04:19:11;15.20;;;10.57;;
20245;SDS011;10281;54.406;18.556;2023-02-15T04:21:43;14.80;;;10.40;;
20245;SDS011;10281;54.406;18.556;2023-02-15T04:24:16;15.90;;;10.60;;
20245;SDS011;10281;54.406;18.556;2023-02-15T04:26:49;14.03;;;10.13;;
20245;SDS011;10281;54.406;18.556;2023-02-15T04:29:18;14.97;;;10.83;;
20245;SDS011;10281;54.406;18.556;2023-02-15T04:31:46;12.47;;;9.43;;
20245;SDS011;10281;54.406;18.556;2023-02-15T04:34:13;13.50;;;9.93;;
20245;SDS011;10281;54.406;18.556;2023-02-15T04:36:40;12.93;;;10.50;;
20245;SDS011;10281;54.406;18.556;2023-02-15T04:39:07;14.33;;;9.37;;
20245;SDS011;10281;54.406;18.556;2023-02-15T04:41:34;15.13;;;9.57;;
20245;SDS011;10281;54.406;18.556;2023-02-15T04:44:02;15.60;;;10.27;;
20245;SDS011;10281;54.406;18.556;2023-02-15T04:46:29;12.80;;;9.73;;
20245;SDS011;10281;54.406;18.556;2023-02-15T04:48:56;13.10;;;9.33;;
20245;SDS011;10281;54.406;18.556;2023-02-15T04:51:23;12.47;;;9.30;;
20245;SDS011;10281;54.406;18.556;2023-02-15T04:53:50;12.77;;;9.60;;
20245;SDS011;10281;54.406;18.556;2023-02-15T04:56:18;13.90;;;9.67;;
20245;SDS011;10281;54.406;18.556;2023-02-15T04:58:46;13.00;;;9.63;;
20245;SDS011;10281;54.406;18.556;2023-02-15T05:01:13;11.23;;;8.83;;
20245;SDS011;10281;54.406;18.556;2023-02-15T05:03:40;12.83;;;9.43;;
20245;SDS011;10281;54.406;18.556;2023-02-15T05:06:07;14.53;;;9.83;;
20245;SDS011;10281;54.406;18.556;2023-02-15T05:08:33;16.87;;;9.50;;
20245;SDS011;10281;54.406;18.556;2023-02-15T05:11:00;14.30;;;9.43;;
20245;SDS011;10281;54.406;18.556;2023-02-15T05:13:26;12.80;;;9.77;;
20245;SDS011;10281;54.406;18.556;2023-02-15T05:15:53;14.60;;;9.30;;
20245;SDS011;10281;54.406;18.556;2023-02-15T05:18:20;11.30;;;8.40;;
20245;SDS011;10281;54.406;18.556;2023-02-15T05:20:47;14.97;;;8.70;;
20245;SDS011;10281;54.406;18.556;2023-02-15T05:23:15;11.67;;;8.70;;
20245;SDS011;10281;54.406;18.556;2023-02-15T05:25:46;12.00;;;8.87;;
20245;SDS011;10281;54.406;18.556;2023-02-15T05:28:19;12.40;;;8.80;;
20245;SDS011;10281;54.406;18.556;2023-02-15T05:30:47;12.73;;;8.10;;
20245;SDS011;10281;54.406;18.556;2023-02-15T05:33:15;11.43;;;8.30;;
20245;SDS011;10281;54.406;18.556;2023-02-15T05:35:41;12.33;;;8.40;;
20245;SDS011;10281;54.406;18.556;2023-02-15T05:38:08;14.13;;;11.40;;
20245;SDS011;10281;54.406;18.556;2023-02-15T05:40:35;13.03;;;9.90;;
20245;SDS011;10281;54.406;18.556;2023-02-15T05:43:02;11.83;;;8.37;;
20245;SDS011;10281;54.406;18.556;2023-02-15T05:45:28;11.87;;;9.20;;
20245;SDS011;10281;54.406;18.556;2023-02-15T05:47:55;10.53;;;7.90;;
20245;SDS011;10281;54.406;18.556;2023-02-15T05:50:23;13.20;;;8.37;;
20245;SDS011;10281;54.406;18.556;2023-02-15T05:52:51;11.70;;;9.13;;
20245;SDS011;10281;54.406;18.556;2023-02-15T05:55:18;11.47;;;8.27;;
20245;SDS011;10281;54.406;18.556;2023-02-15T05:57:45;12.43;;;8.60;;
20245;SDS011;10281;54.406;18.556;2023-02-15T06:00:12;12.73;;;7.77;;
20245;SDS011;10281;54.406;18.556;2023-02-15T06:02:39;14.23;;;8.93;;
20245;SDS011;10281;54.406;18.556;2023-02-15T06:05:06;13.37;;;8.07;;
20245;SDS011;10281;54.406;18.556;2023-02-15T06:07:33;11.90;;;8.30;;
20245;SDS011;10281;54.406;18.556;2023-02-15T06:10:00;11.60;;;8.23;;
20245;SDS011;10281;54.406;18.556;2023-02-15T06:12:27;12.63;;;8.40;;
20245;SDS011;10281;54.406;18.556;2023-02-15T06:14:54;10.47;;;8.17;;
20245;SDS011;10281;54.406;18.556;2023-02-15T06:17:20;10.70;;;7.83;;
20245;SDS011;10281;54.406;18.556;2023-02-15T06:19:47;12.30;;;8.23;;
20245;SDS011;10281;54.406;18.556;2023-02-15T06:22:13;10.97;;;7.80;;
20245;SDS011;10281;54.406;18.556;2023-02-15T06:24:40;13.20;;;8.50;;
20245;SDS011;10281;54.406;18.556;2023-02-15T06:27:09;11.97;;;7.27;;
20245;SDS011;10281;54.406;18.556;2023-02-15T06:29:35;10.40;;;7.67;;
20245;SDS011;10281;54.406;18.556;2023-02-15T06:32:02;12.10;;;7.70;;
20245;SDS011;10281;54.406;18.556;2023-02-15T06:34:29;11.73;;;7.63;;
20245;SDS011;10281;54.406;18.556;2023-02-15T06:36:56;10.97;;;8.07;;
20245;SDS011;10281;54.406;18.556;2023-02-15T06:39:23;11.50;;;8.43;;
20245;SDS011;10281;54.406;18.556;2023-02-15T06:41:50;9.77;;;7.50;;
20245;SDS011;10281;54.406;18.556;2023-02-15T06:44:16;10.63;;;7.77;;
20245;SDS011;10281;54.406;18.556;2023-02-15T06:46:43;13.57;;;8.10;;
20245;SDS011;10281;54.406;18.556;2023-02-15T06:49:09;10.53;;;8.07;;
20245;SDS011;10281;54.406;18.556;2023-02-15T06:51:36;14.30;;;8.60;;
20245;SDS011;10281;54.406;18.556;2023-02-15T06:54:03;11.77;;;7.67;;
20245;SDS011;10281;54.406;18.556;2023-02-15T06:56:29;10.97;;;8.20;;
20245;SDS011;10281;54.406;18.556;2023-02-15T06:58:56;12.57;;;8.37;;
20245;SDS011;10281;54.406;18.556;2023-02-15T07:01:22;11.00;;;8.13;;
20245;SDS011;10281;54.406;18.556;2023-02-15T07:03:49;12.80;;;8.00;;
20245;SDS011;10281;54.406;18.556;2023-02-15T07:06:16;14.10;;;8.43;;
20245;SDS011;10281;54.406;18.556;2023-02-15T07:08:42;11.67;;;8.17;;
20245;SDS011;10281;54.406;18.556;2023-02-15T07:11:09;10.03;;;8.17;;
20245;SDS011;10281;54.406;18.556;2023-02-15T07:13:54;10.57;;;8.03;;
20245;SDS011;10281;54.406;18.556;2023-02-15T07:16:20;13.77;;;9.00;;
20245;SDS011;10281;54.406;18.556;2023-02-15T07:18:47;11.37;;;8.40;;
20245;SDS011;10281;54.406;18.556;2023-02-15T07:21:14;13.43;;;8.93;;
20245;SDS011;10281;54.406;18.556;2023-02-15T07:23:40;14.30;;;9.23;;
20245;SDS011;10281;54.406;18.556;2023-02-15T07:26:07;14.83;;;10.00;;
20245;SDS011;10281;54.406;18.556;2023-02-15T07:28:34;15.87;;;9.97;;
20245;SDS011;10281;54.406;18.556;2023-02-15T07:31:02;13.07;;;9.17;;
20245;SDS011;10281;54.406;18.556;2023-02-15T07:33:30;14.13;;;9.03;;
20245;SDS011;10281;54.406;18.556;2023-02-15T07:35:59;14.13;;;9.20;;
20245;SDS011;10281;54.406;18.556;2023-02-15T07:38:29;11.53;;;9.03;;
20245;SDS011;10281;54.406;18.556;2023-02-15T07:40:57;13.07;;;8.60;;
20245;SDS011;10281;54.406;18.556;2023-02-15T07:43:25;15.07;;;11.37;;
20245;SDS011;10281;54.406;18.556;2023-02-15T07:45:52;15.03;;;10.00;;
20245;SDS011;10281;54.406;18.556;2023-02-15T07:48:19;13.33;;;9.03;;
20245;SDS011;10281;54.406;18.556;2023-02-15T07:50:45;13.13;;;9.07;;
20245;SDS011;10281;54.406;18.556;2023-02-15T07:53:12;11.00;;;8.47;;
20245;SDS011;10281;54.406;18.556;2023-02-15T07:55:39;12.57;;;8.77;;
20245;SDS011;10281;54.406;18.556;2023-02-15T07:58:05;10.40;;;7.73;;
20245;SDS011;10281;54.406;18.556;2023-02-15T08:00:32;13.23;;;8.27;;
20245;SDS011;10281;54.406;18.556;2023-02-15T08:03:00;11.13;;;8.57;;
20245;SDS011;10281;54.406;18.556;2023-02-15T08:05:33;11.37;;;8.50;;
20245;SDS011;10281;54.406;18.556;2023-02-15T08:07:59;11.53;;;8.13;;
20245;SDS011;10281;54.406;18.556;2023-02-15T08:10:26;13.63;;;9.07;;
20245;SDS011;10281;54.406;18.556;2023-02-15T08:12:55;16.43;;;9.20;;
20245;SDS011;10281;54.406;18.556;2023-02-15T08:15:21;11.93;;;8.43;;
20245;SDS011;10281;54.406;18.556;2023-02-15T08:17:48;11.93;;;8.70;;
20245;SDS011;10281;54.406;18.556;2023-02-15T08:20:15;12.03;;;8.40;;
20245;SDS011;10281;54.406;18.556;2023-02-15T08:22:41;11.70;;;8.70;;
20245;SDS011;10281;54.406;18.556;2023-02-15T08:25:08;14.83;;;8.80;;
20245;SDS011;10281;54.406;18.556;2023-02-15T08:27:35;11.23;;;8.70;;
20245;SDS011;10281;54.406;18.556;2023-02-15T08:30:01;12.50;;;8.60;;
20245;SDS011;10281;54.406;18.556;2023-02-15T08:32:30;14.77;;;8.77;;
20245;SDS011;10281;54.406;18.556;2023-02-15T08:34:56;12.53;;;9.23;;
20245;SDS011;10281;54.406;18.556;2023-02-15T08:37:23;13.00;;;10.43;;
20245;SDS011;10281;54.406;18.556;2023-02-15T08:39:51;11.27;;;8.70;;
20245;SDS011;10281;54.406;18.556;2023-02-15T08:42:17;13.17;;;9.53;;
20245;SDS011;10281;54.406;18.556;2023-02-15T08:44:46;11.77;;;9.53;;
20245;SDS011;10281;54.406;18.556;2023-02-15T08:47:15;13.37;;;9.17;;
20245;SDS011;10281;54.406;18.556;2023-02-15T08:49:41;12.03;;;8.80;;
20245;SDS011;10281;54.406;18.556;2023-02-15T08:52:08;12.43;;;8.43;;
20245;SDS011;10281;54.406;18.556;2023-02-15T08:54:34;14.40;;;9.60;;
20245;SDS011;10281;54.406;18.556;2023-02-15T08:57:01;12.53;;;9.13;;
20245;SDS011;10281;54.406;18.556;2023-02-15T08:59:28;12.00;;;9.53;;
20245;SDS011;10281;54.406;18.556;2023-02-15T09:01:54;12.43;;;9.17;;
20245;SDS011;10281;54.406;18.556;2023-02-15T09:04:22;12.80;;;9.53;;
20245;SDS011;10281;54.406;18.556;2023-02-15T09:06:49;14.57;;;10.27;;
20245;SDS011;10281;54.406;18.556;2023-02-15T09:09:17;16.77;;;10.47;;
20245;SDS011;10281;54.406;18.556;2023-02-15T09:11:45;13.87;;;9.73;;
20245;SDS011;10281;54.406;18.556;2023-02-15T09:14:15;14.77;;;10.10;;
20245;SDS011;10281;54.406;18.556;2023-02-15T09:16:45;12.63;;;9.60;;
20245;SDS011;10281;54.406;18.556;2023-02-15T09:19:15;14.77;;;10.67;;
20245;SDS011;10281;54.406;18.556;2023-02-15T09:21:43;16.73;;;11.00;;
20245;SDS011;10281;54.406;18.556;2023-02-15T09:24:10;16.10;;;10.23;;
20245;SDS011;10281;54.406;18.556;2023-02-15T09:26:40;15.03;;;10.27;;
20245;SDS011;10281;54.406;18.556;2023-02-15T09:29:08;13.57;;;10.47;;
20245;SDS011;10281;54.406;18.556;2023-02-15T09:31:38;14.67;;;10.13;;
20245;SDS011;10281;54.406;18.556;2023-02-15T09:34:09;16.00;;;11.30;;
20245;SDS011;10281;54.406;18.556;2023-02-15T09:36:41;13.63;;;11.47;;
20245;SDS011;10281;54.406;18.556;2023-02-15T09:39:09;17.27;;;10.53;;
20245;SDS011;10281;54.406;18.556;2023-02-15T09:44:43;15.27;;;11.63;;
20245;SDS011;10281;54.406;18.556;2023-02-15T09:47:34;15.93;;;11.60;;
20245;SDS011;10281;54.406;18.556;2023-02-15T09:50:09;14.33;;;11.07;;
20245;SDS011;10281;54.406;18.556;2023-02-15T09:52:44;15.80;;;11.47;;
20245;SDS011;10281;54.406;18.556;2023-02-15T09:58:05;18.37;;;11.93;;
20245;SDS011;10281;54.406;18.556;2023-02-15T10:00:41;15.27;;;11.63;;
20245;SDS011;10281;54.406;18.556;2023-02-15T10:03:23;17.03;;;10.43;;
20245;SDS011;10281;54.406;18.556;2023-02-15T10:06:01;14.73;;;11.73;;
20245;SDS011;10281;54.406;18.556;2023-02-15T10:08:40;15.80;;;11.50;;
20245;SDS011;10281;54.406;18.556;2023-02-15T10:11:15;16.13;;;11.20;;
20245;SDS011;10281;54.406;18.556;2023-02-15T10:13:58;14.13;;;11.20;;
20245;SDS011;10281;54.406;18.556;2023-02-15T10:16:38;17.70;;;12.00;;
20245;SDS011;10281;54.406;18.556;2023-02-15T10:19:12;16.07;;;11.70;;
20245;SDS011;10281;54.406;18.556;2023-02-15T10:24:45;18.20;;;13.03;;
20245;SDS011;10281;54.406;18.556;2023-02-15T10:27:23;16.83;;;12.40;;
20245;SDS011;10281;54.406;18.556;2023-02-15T10:30:00;16.37;;;12.43;;
20245;SDS011;10281;54.406;18.556;2023-02-15T10:32:31;16.40;;;12.27;;
20245;SDS011;10281;54.406;18.556;2023-02-15T10:35:03;15.97;;;12.10;;
20245;SDS011;10281;54.406;18.556;2023-02-15T10:40:41;15.73;;;12.20;;
20245;SDS011;10281;54.406;18.556;2023-02-15T10:43:13;20.10;;;13.30;;
20245;SDS011;10281;54.406;18.556;2023-02-15T10:45:43;21.10;;;13.83;;
20245;SDS011;10281;54.406;18.556;2023-02-15T10:48:24;15.43;;;13.30;;
20245;SDS011;10281;54.406;18.556;2023-02-15T10:50:57;17.97;;;13.57;;
20245;SDS011;10281;54.406;18.556;2023-02-15T10:53:33;17.20;;;13.80;;
20245;SDS011;10281;54.406;18.556;2023-02-15T10:56:13;18.27;;;13.57;;
20245;SDS011;10281;54.406;18.556;2023-02-15T10:59:11;17.57;;;13.53;;
20245;SDS011;10281;54.406;18.556;2023-02-15T11:07:08;19.10;;;13.50;;
20245;SDS011;10281;54.406;18.556;2023-02-15T11:09:38;17.53;;;14.30;;
20245;SDS011;10281;54.406;18.556;2023-02-15T11:12:12;18.20;;;14.70;;
20245;SDS011;10281;54.406;18.556;2023-02-15T11:14:49;20.30;;;14.93;;
20245;SDS011;10281;54.406;18.556;2023-02-15T11:17:17;17.33;;;14.10;;
20245;SDS011;10281;54.406;18.556;2023-02-15T11:19:53;17.03;;;13.67;;
20245;SDS011;10281;54.406;18.556;2023-02-15T11:22:30;18.57;;;14.23;;
20245;SDS011;10281;54.406;18.556;2023-02-15T11:24:59;20.03;;;14.33;;
20245;SDS011;10281;54.406;18.556;2023-02-15T11:27:29;18.17;;;14.77;;
20245;SDS011;10281;54.406;18.556;2023-02-15T11:30:00;19.90;;;15.10;;
20245;SDS011;10281;54.406;18.556;2023-02-15T11:32:34;19.83;;;15.43;;
20245;SDS011;10281;54.406;18.556;2023-02-15T11:38:01;19.13;;;16.07;;
20245;SDS011;10281;54.406;18.556;2023-02-15T11:40:30;21.67;;;16.73;;
20245;SDS011;10281;54.406;18.556;2023-02-15T11:43:04;19.77;;;16.33;;
20245;SDS011;10281;54.406;18.556;2023-02-15T11:45:34;24.93;;;18.60;;
20245;SDS011;10281;54.406;18.556;2023-02-15T11:48:01;22.77;;;17.60;;
20245;SDS011;10281;54.406;18.556;2023-02-15T11:50:31;19.33;;;16.10;;
20245;SDS011;10281;54.406;18.556;2023-02-15T11:53:00;20.37;;;15.63;;
20245;SDS011;10281;54.406;18.556;2023-02-15T11:55:29;23.10;;;17.53;;
20245;SDS011;10281;54.406;18.556;2023-02-15T12:03:42;23.00;;;17.53;;
20245;SDS011;10281;54.406;18.556;2023-02-15T12:06:32;20.93;;;15.80;;
20245;SDS011;10281;54.406;18.556;2023-02-15T12:09:03;22.07;;;16.13;;
20245;SDS011;10281;54.406;18.556;2023-02-15T12:11:35;19.50;;;15.13;;
20245;SDS011;10281;54.406;18.556;2023-02-15T12:14:05;25.97;;;17.00;;
20245;SDS011;10281;54.406;18.556;2023-02-15T12:16:40;21.13;;;16.07;;
20245;SDS011;10281;54.406;18.556;2023-02-15T12:19:39;24.47;;;17.63;;
20245;SDS011;10281;54.406;18.556;2023-02-15T12:21:56;20.10;;;15.83;;
20245;SDS011;10281;54.406;18.556;2023-02-15T12:24:27;22.47;;;17.77;;
20245;SDS011;10281;54.406;18.556;2023-02-15T12:27:00;24.93;;;18.13;;
20245;SDS011;10281;54.406;18.556;2023-02-15T12:29:30;22.40;;;16.77;;
20245;SDS011;10281;54.406;18.556;2023-02-15T12:32:03;21.57;;;16.23;;
20245;SDS011;10281;54.406;18.556;2023-02-15T12:34:32;19.93;;;16.90;;
20245;SDS011;10281;54.406;18.556;2023-02-15T12:37:07;20.87;;;17.43;;
20245;SDS011;10281;54.406;18.556;2023-02-15T12:39:32;23.20;;;17.37;;
20245;SDS011;10281;54.406;18.556;2023-02-15T12:42:01;22.07;;;16.93;;
20245;SDS011;10281;54.406;18.556;2023-02-15T12:44:32;22.07;;;16.10;;
20245;SDS011;10281;54.406;18.556;2023-02-15T12:47:03;23.13;;;17.23;;
20245;SDS011;10281;54.406;18.556;2023-02-15T12:49:34;21.83;;;17.37;;
20245;SDS011;10281;54.406;18.556;2023-02-15T12:52:04;22.73;;;16.47;;
20245;SDS011;10281;54.406;18.556;2023-02-15T12:54:49;23.70;;;17.80;;
20245;SDS011;10281;54.406;18.556;2023-02-15T12:57:22;23.47;;;17.13;;
20245;SDS011;10281;54.406;18.556;2023-02-15T13:00:03;39.20;;;15.93;;
20245;SDS011;10281;54.406;18.556;2023-02-15T13:02:42;24.40;;;17.70;;
20245;SDS011;10281;54.406;18.556;2023-02-15T13:05:30;22.63;;;16.97;;
20245;SDS011;10281;54.406;18.556;2023-02-15T13:07:53;23.20;;;16.67;;
20245;SDS011;10281;54.406;18.556;2023-02-15T13:10:26;22.00;;;16.17;;
20245;SDS011;10281;54.406;18.556;2023-02-15T13:12:55;19.80;;;15.47;;
20245;SDS011;10281;54.406;18.556;2023-02-15T13:15:27;22.47;;;16.13;;
20245;SDS011;10281;54.406;18.556;2023-02-15T13:17:57;20.60;;;16.37;;
20245;SDS011;10281;54.406;18.556;2023-02-15T13:20:26;18.90;;;15.43;;
20245;SDS011;10281;54.406;18.556;2023-02-15T13:22:57;18.90;;;14.83;;
20245;SDS011;10281;54.406;18.556;2023-02-15T13:25:28;21.13;;;16.20;;
20245;SDS011;10281;54.406;18.556;2023-02-15T13:28:00;23.27;;;15.90;;
20245;SDS011;10281;54.406;18.556;2023-02-15T13:30:30;19.73;;;16.20;;
20245;SDS011;10281;54.406;18.556;2023-02-15T13:33:02;21.50;;;15.90;;
20245;SDS011;10281;54.406;18.556;2023-02-15T13:35:36;21.20;;;16.17;;
20245;SDS011;10281;54.406;18.556;2023-02-15T13:38:14;20.10;;;15.67;;
20245;SDS011;10281;54.406;18.556;2023-02-15T13:40:46;18.93;;;15.20;;
20245;SDS011;10281;54.406;18.556;2023-02-15T13:43:49;21.73;;;15.20;;
20245;SDS011;10281;54.406;18.556;2023-02-15T13:46:21;19.80;;;15.17;;
20245;SDS011;10281;54.406;18.556;2023-02-15T13:48:58;20.57;;;15.83;;
20245;SDS011;10281;54.406;18.556;2023-02-15T13:52:16;18.47;;;14.90;;
20245;SDS011;10281;54.406;18.556;2023-02-15T14:00:02;20.97;;;15.13;;
20245;SDS011;10281;54.406;18.556;2023-02-15T14:02:43;22.20;;;15.23;;
20245;SDS011;10281;54.406;18.556;2023-02-15T14:05:20;18.40;;;14.67;;
20245;SDS011;10281;54.406;18.556;2023-02-15T14:07:56;19.23;;;15.13;;
20245;SDS011;10281;54.406;18.556;2023-02-15T14:10:43;20.53;;;15.60;;
20245;SDS011;10281;54.406;18.556;2023-02-15T14:16:08;18.80;;;14.00;;
20245;SDS011;10281;54.406;18.556;2023-02-15T14:19:05;17.57;;;13.53;;
20245;SDS011;10281;54.406;18.556;2023-02-15T14:21:34;16.63;;;14.17;;
20245;SDS011;10281;54.406;18.556;2023-02-15T14:24:15;18.80;;;15.20;;
20245;SDS011;10281;54.406;18.556;2023-02-15T14:26:52;16.63;;;13.70;;
20245;SDS011;10281;54.406;18.556;2023-02-15T14:29:32;16.90;;;14.00;;
20245;SDS011;10281;54.406;18.556;2023-02-15T14:32:11;17.43;;;14.23;;
20245;SDS011;10281;54.406;18.556;2023-02-15T14:34:43;19.40;;;15.30;;
20245;SDS011;10281;54.406;18.556;2023-02-15T14:37:16;19.87;;;14.93;;
20245;SDS011;10281;54.406;18.556;2023-02-15T14:39:50;20.53;;;15.97;;
20245;SDS011;10281;54.406;18.556;2023-02-15T14:42:32;18.83;;;15.23;;
20245;SDS011;10281;54.406;18.556;2023-02-15T14:45:15;19.40;;;15.13;;
20245;SDS011;10281;54.406;18.556;2023-02-15T14:47:48;23.80;;;16.33;;
20245;SDS011;10281;54.406;18.556;2023-02-15T14:50:53;17.50;;;13.40;;
20245;SDS011;10281;54.406;18.556;2023-02-15T14:55:43;18.00;;;14.57;;
20245;SDS011;10281;54.406;18.556;2023-02-15T14:58:10;18.23;;;14.43;;
20245;SDS011;10281;54.406;18.556;2023-02-15T15:00:39;18.23;;;13.70;;
20245;SDS011;10281;54.406;18.556;2023-02-15T15:03:16;18.60;;;14.97;;
20245;SDS011;10281;54.406;18.556;2023-02-15T15:05:51;17.87;;;14.80;;
20245;SDS011;10281;54.406;18.556;2023-02-15T15:08:22;19.63;;;15.23;;
20245;SDS011;10281;54.406;18.556;2023-02-15T15:10:52;19.27;;;14.67;;
20245;SDS011;10281;54.406;18.556;2023-02-15T15:16:23;19.00;;;14.87;;
20245;SDS011;10281;54.406;18.556;2023-02-15T15:18:52;18.40;;;15.07;;
20245;SDS011;10281;54.406;18.556;2023-02-15T15:23:57;20.03;;;15.70;;
20245;SDS011;10281;54.406;18.556;2023-02-15T15:26:26;24.27;;;16.33;;